Time;durP1;ratioP1;P1;durP2;ratioP2;P2;SDS_P1;SDS_P2;PMS_P1;PMS_P2;Temp;Humidity;BMP_temperature;BMP_pressure;BME280_temperature;BME280_humidity;BME280_pressure;Samples;Min_cycle;Max_cycle;Signal;HPM_P1;HPM_P2
2021/03/09 00:02:31;;;;;;;43.42;21.42;;;;;;;;;;4899524;29;20062;-85
2021/03/09 00:05:20;;;;;;;38.33;17.60;;;;;;;;;;4885909;29;20049;-90
2021/03/09 00:08:03;;;;;;;37.85;19.40;;;5.30;99.90;;;;;;4904387;29;20045;-87
2021/03/09 00:16:04;;;;;;;36.85;17.25;;;;;;;;;;4977222;23;20355;-87
2021/03/09 00:19:12;;;;;;;35.13;17.00;;;;;;;;;;4951306;23;20044;-87
2021/03/09 00:29:48;;;;;;;33.05;18.02;;;;;;;;;;4922098;29;20048;-86
2021/03/09 00:37:17;;;;;;;33.00;17.83;;;5.00;99.90;;;;;;4885956;29;20048;-86
2021/03/09 00:41:30;;;;;;;29.00;17.25;;;4.90;99.90;;;;;;4897634;29;20059;-89
2021/03/09 00:44:01;;;;;;;36.75;18.17;;;;;;;;;;4889562;29;20044;-89
2021/03/09 00:47:41;;;;;;;31.65;17.17;;;;;;;;;;4915094;29;20043;-89
2021/03/09 00:50:15;;;;;;;41.88;19.08;;;;;;;;;;4935187;24;20033;-90
2021/03/09 01:00:11;;;;;;;41.78;19.40;;;4.90;99.90;;;;;;4170607;27;20034;-89
2021/03/09 01:02:56;;;;;;;32.35;17.67;;;;;;;;;;4879406;24;20044;-88
2021/03/09 01:09:49;;;;;;;31.17;18.50;;;;;;;;;;4931943;23;20039;-89
2021/03/09 01:12:25;;;;;;;32.97;15.02;;;;;;;;;;4921448;29;20057;-86
2021/03/09 01:15:11;;;;;;;40.08;20.50;;;;;;;;;;4973029;23;20149;-88
2021/03/09 01:18:19;;;;;;;37.13;18.40;;;;;;;;;;4883454;29;20059;-88
2021/03/09 01:21:17;;;;;;;40.55;19.95;;;;;;;;;;4908289;29;20067;-87
2021/03/09 01:24:06;;;;;;;31.30;17.75;;;;;;;;;;4920014;24;20040;-89
2021/03/09 01:26:51;;;;;;;40.45;19.65;;;;;;;;;;4930375;23;20055;-88
2021/03/09 01:29:51;;;;;;;34.30;17.15;;;;;;;;;;4977777;24;20041;-88
2021/03/09 01:32:44;;;;;;;43.35;18.73;;;;;;;;;;4920131;24;20038;-87
2021/03/09 01:35:35;;;;;;;33.55;17.73;;;;;;;;;;4889678;24;20057;-87
2021/03/09 01:38:10;;;;;;;35.85;17.15;;;;;;;;;;4889631;29;20060;-87
2021/03/09 01:41:40;;;;;;;36.33;16.77;;;4.90;99.90;;;;;;4892254;29;20057;-86
2021/03/09 01:44:20;;;;;;;36.30;17.13;;;;;;;;;;4990297;23;20636;-88
2021/03/09 01:51:01;;;;;;;35.95;17.70;;;5.00;99.90;;;;;;4892395;29;20044;-88
2021/03/09 01:54:10;;;;;;;41.97;19.63;;;5.10;99.90;;;;;;4922155;29;20063;-86
2021/03/09 01:56:58;;;;;;;40.08;18.27;;;;;;;;;;4906406;29;20067;-86
2021/03/09 02:03:45;;;;;;;43.22;16.85;;;;;;;;;;4968250;23;20052;-85
2021/03/09 02:06:25;;;;;;;33.90;16.25;;;;;;;;;;4882831;29;20059;-88
2021/03/09 02:09:21;;;;;;;41.53;18.13;;;5.30;99.90;;;;;;4882276;29;20057;-88
2021/03/09 02:12:24;;;;;;;30.77;17.40;;;;;;;;;;5017411;23;20042;-85
2021/03/09 02:15:57;;;;;;;33.70;15.80;;;5.40;99.90;;;;;;4929471;23;20047;-88
2021/03/09 02:19:47;;;;;;;28.63;13.20;;;;;;;;;;4907428;29;20060;-86
2021/03/09 02:23:17;;;;;;;32.00;14.35;;;5.40;99.90;;;;;;4878752;29;20063;-85
2021/03/09 02:30:28;;;;;;;30.17;13.30;;;5.40;99.90;;;;;;4848858;29;20063;-87
2021/03/09 02:33:04;;;;;;;32.90;13.57;;;;;;;;;;4889366;29;20051;-88
2021/03/09 02:36:02;;;;;;;24.63;12.38;;;;;;;;;;4879179;29;20040;-86
2021/03/09 02:39:02;;;;;;;27.83;15.07;;;;;;;;;;4919622;24;20049;-86
2021/03/09 02:42:13;;;;;;;27.63;13.98;;;5.40;99.90;;;;;;4874168;29;20048;-86
2021/03/09 02:45:07;;;;;;;30.58;15.52;;;;;;;;;;4899438;29;20063;-86
2021/03/09 02:47:44;;;;;;;33.65;14.85;;;;;;;;;;4872572;29;20114;-86
2021/03/09 02:51:26;;;;;;;28.83;14.63;;;5.60;99.90;;;;;;4886762;29;20053;-85
2021/03/09 02:54:32;;;;;;;31.10;12.95;;;5.50;99.90;;;;;;4887771;29;20041;-85
2021/03/09 02:57:39;;;;;;;28.92;14.43;;;;;;;;;;4863975;29;20040;-87
2021/03/09 03:00:14;;;;;;;32.38;14.65;;;;;;;;;;4865755;29;20068;-87
2021/03/09 03:03:09;;;;;;;29.20;14.85;;;;;;;;;;4848974;29;20054;-86
2021/03/09 03:05:38;;;;;;;30.73;13.88;;;5.60;99.90;;;;;;4846825;29;20052;-90
2021/03/09 03:11:59;;;;;;;22.50;12.07;;;;;;;;;;4908707;23;20057;-87
2021/03/09 03:14:35;;;;;;;27.73;13.27;;;5.80;99.90;;;;;;4866386;29;20033;-86
2021/03/09 03:17:50;;;;;;;28.55;16.25;;;;;;;;;;4877457;29;20033;-86
2021/03/09 03:20:32;;;;;;;28.27;13.50;;;;;;;;;;4910624;24;20037;-86
2021/03/09 03:29:13;;;;;;;27.60;13.98;;;5.70;99.90;;;;;;4924583;29;20051;-89
2021/03/09 03:32:07;;;;;;;34.20;15.27;;;;;;;;;;4906750;29;20045;-87
2021/03/09 03:34:44;;;;;;;28.70;14.35;;;5.70;99.90;;;;;;4830116;29;20058;-85
2021/03/09 03:37:28;;;;;;;33.35;13.52;;;;;;;;;;4864672;23;20048;-88
2021/03/09 03:43:31;;;;;;;26.52;13.32;;;;;;;;;;4926840;23;20060;-86
2021/03/09 03:47:06;;;;;;;36.92;17.15;;;5.80;99.90;;;;;;4888860;29;20117;-85
2021/03/09 03:50:38;;;;;;;33.92;15.02;;;5.80;99.90;;;;;;4910142;29;20020;-86
2021/03/09 03:53:10;;;;;;;30.75;14.52;;;;;;;;;;4903082;29;20056;-85
2021/03/09 03:56:23;;;;;;;30.00;13.90;;;;;;;;;;4906080;24;20053;-87
2021/03/09 03:59:32;;;;;;;32.97;13.68;;;;;;;;;;4922398;24;20064;-85
2021/03/09 04:02:08;;;;;;;31.13;13.23;;;5.50;99.90;;;;;;4867290;29;20068;-87
2021/03/09 04:04:59;;;;;;;26.77;12.98;;;5.40;99.90;;;;;;4878320;29;20416;-86
2021/03/09 04:12:18;;;;;;;25.42;13.88;;;5.30;99.90;;;;;;4860260;29;20066;-86
2021/03/09 04:14:50;;;;;;;29.55;12.98;;;;;;;;;;4845227;29;20060;-86
2021/03/09 04:17:32;;;;;;;28.73;12.50;;;;;;;;;;4860768;29;20085;-86
2021/03/09 04:20:10;;;;;;;23.65;12.40;;;;;;;;;;4859141;29;20082;-87
2021/03/09 04:22:44;;;;;;;26.73;13.98;;;;;;;;;;4836494;29;20056;-86
2021/03/09 04:25:21;;;;;;;25.17;12.18;;;5.20;99.90;;;;;;4876245;29;20042;-86
2021/03/09 04:27:55;;;;;;;35.70;13.95;;;5.10;99.90;;;;;;4872267;29;20048;-86
2021/03/09 04:30:33;;;;;;;25.45;12.15;;;5.10;99.90;;;;;;4863916;29;20049;-86
2021/03/09 04:33:35;;;;;;;34.85;14.07;;;;;;;;;;4851599;29;20036;-85
2021/03/09 04:36:33;;;;;;;24.24;12.34;;;;;;;;;;4741808;29;10000389;-86
2021/03/09 04:39:51;;;;;;;24.10;14.00;;;;;;;;;;4876194;24;20241;-86
2021/03/09 04:42:36;;;;;;;28.38;13.57;;;;;;;;;;4884673;29;20067;-87
2021/03/09 04:45:23;;;;;;;51.13;14.93;;;;;;;;;;4934515;24;20045;-86
2021/03/09 04:47:59;;;;;;;34.40;13.80;;;5.00;99.90;;;;;;4890875;29;20091;-86
2021/03/09 04:50:34;;;;;;;25.20;13.10;;;;;;;;;;4824922;24;20058;-86
2021/03/09 04:53:28;;;;;;;22.77;12.45;;;4.90;99.90;;;;;;4820183;29;20054;-87
2021/03/09 04:59:28;;;;;;;34.90;13.52;;;;;;;;;;4883980;29;20046;-88
2021/03/09 05:01:59;;;;;;;33.67;16.63;;;;;;;;;;4851201;29;20061;-86
2021/03/09 05:04:54;;;;;;;26.38;14.30;;;4.70;99.90;;;;;;4869550;29;20416;-86
2021/03/09 05:10:48;;;;;;;31.63;14.02;;;;;;;;;;4898268;23;20091;-86
2021/03/09 05:13:23;;;;;;;26.40;13.38;;;;;;;;;;4881376;29;20421;-86
2021/03/09 05:16:18;;;;;;;27.15;14.13;;;;;;;;;;4851116;29;20072;-86
2021/03/09 05:19:04;;;;;;;32.00;13.45;;;;;;;;;;4917705;24;20053;-85
2021/03/09 05:22:13;;;;;;;27.88;14.40;;;;;;;;;;4813071;29;20051;-87
2021/03/09 05:24:45;;;;;;;25.75;13.30;;;;;;;;;;4879431;23;20068;-86
2021/03/09 05:27:25;;;;;;;32.67;12.85;;;;;;;;;;4861666;29;20078;-86
2021/03/09 05:30:11;;;;;;;25.25;13.32;;;4.60;99.90;;;;;;4858374;29;20061;-86
2021/03/09 05:32:51;;;;;;;29.10;13.35;;;;;;;;;;4853511;29;20061;-87
2021/03/09 05:39:07;;;;;;;25.58;12.23;;;;;;;;;;1847671;23;20053;-86
2021/03/09 05:41:44;;;;;;;25.55;13.07;;;;;;;;;;4967866;23;20064;-85
2021/03/09 05:44:18;;;;;;;30.83;12.85;;;;;;;;;;4869898;24;20054;-85
2021/03/09 05:47:06;;;;;;;23.38;10.98;;;;;;;;;;4844692;24;20062;-88
2021/03/09 05:49:49;;;;;;;31.02;14.02;;;;;;;;;;4836600;29;20058;-86
2021/03/09 05:52:36;;;;;;;28.70;14.27;;;;;;;;;;5022850;23;20068;-88
2021/03/09 05:55:54;;;;;;;31.33;13.52;;;;;;;;;;4854032;29;20061;-89
2021/03/09 05:58:28;;;;;;;28.95;12.43;;;;;;;;;;4872185;23;20068;-85
2021/03/09 06:04:26;;;;;;;26.65;12.75;;;;;;;;;;4919230;23;20053;-88
2021/03/09 06:11:54;;;;;;;29.67;13.05;;;3.80;99.90;;;;;;4901882;29;20053;-92
2021/03/09 06:14:26;;;;;;;27.05;13.02;;;;;;;;;;4873153;29;20063;-89
2021/03/09 06:17:24;;;;;;;27.77;13.85;;;3.70;99.90;;;;;;4891213;29;20041;-88
2021/03/09 06:20:26;;;;;;;38.33;13.10;;;;;;;;;;4884814;24;20041;-91
2021/03/09 06:24:31;;;;;;;31.48;13.90;;;;;;;;;;4847583;29;20041;-88
2021/03/09 06:27:32;;;;;;;29.52;15.27;;;3.80;99.90;;;;;;4877317;24;20055;-90
2021/03/09 06:31:10;;;;;;;33.03;16.25;;;3.80;99.90;;;;;;4824428;29;20049;-92
2021/03/09 06:38:29;;;;;;;32.38;15.27;;;;;;;;;;4932916;23;20051;-90
2021/03/09 06:41:28;;;;;;;35.92;14.68;;;3.70;99.90;;;;;;4847860;29;20047;-91
2021/03/09 06:44:09;;;;;;;35.10;15.60;;;;;;;;;;4833649;29;20049;-87
2021/03/09 06:51:02;;;;;;;38.03;15.90;;;;;;;;;;4894933;23;20051;-90
2021/03/09 06:54:57;;;;;;;40.30;18.85;;;;;;;;;;4878932;29;20064;-90
2021/03/09 07:03:19;;;;;;;33.85;17.50;;;3.60;99.90;;;;;;4874991;29;20056;-91
2021/03/09 07:05:59;;;;;;;34.78;17.08;;;;;;;;;;4842265;29;20414;-91
2021/03/09 07:08:45;;;;;;;34.42;19.60;;;3.60;99.90;;;;;;4833058;29;20422;-93
2021/03/09 07:12:06;;;;;;;33.90;17.55;;;3.70;99.90;;;;;;4838561;29;20075;-92
2021/03/09 07:14:46;;;;;;;35.83;19.58;;;;;;;;;;4830902;29;20049;-88
2021/03/09 07:17:14;;;;;;;32.97;17.77;;;;;;;;;;4832458;29;20068;-90
2021/03/09 07:19:44;;;;;;;42.38;20.40;;;;;;;;;;4826894;29;20054;-89
2021/03/09 07:22:14;;;;;;;39.70;20.60;;;3.70;99.90;;;;;;4827144;29;20149;-91
2021/03/09 07:24:47;;;;;;;40.08;20.02;;;;;;;;;;4825842;29;20054;-88
2021/03/09 07:27:22;;;;;;;80.72;20.65;;;3.90;99.90;;;;;;4828038;29;20081;-87
2021/03/09 07:29:54;;;;;;;43.70;18.45;;;3.90;99.90;;;;;;4829081;29;20070;-85
2021/03/09 07:32:23;;;;;;;45.33;21.60;;;;;;;;;;4837825;29;20125;-86
2021/03/09 07:34:54;;;;;;;35.60;18.90;;;4.00;99.90;;;;;;4845806;29;20372;-85
2021/03/09 07:37:24;;;;;;;53.40;22.27;;;;;;;;;;4819076;29;20064;-87
2021/03/09 07:39:52;;;;;;;38.97;17.02;;;;;;;;;;4808751;29;20062;-86
2021/03/09 07:42:20;;;;;;;41.17;19.52;;;;;;;;;;4816284;29;20050;-87
2021/03/09 07:44:49;;;;;;;33.13;17.17;;;;;;;;;;4825450;29;20062;-85
2021/03/09 07:47:19;;;;;;;39.47;18.77;;;;;;;;;;4835395;29;20054;-87
2021/03/09 07:49:46;;;;;;;38.60;20.42;;;;;;;;;;4815492;29;20058;-87
2021/03/09 07:52:19;;;;;;;34.45;17.20;;;4.80;99.90;;;;;;4831059;29;20049;-87
2021/03/09 07:55:16;;;;;;;40.75;20.88;;;4.90;99.90;;;;;;4831527;29;20046;-88
2021/03/09 07:57:43;;;;;;;32.25;16.80;;;;;;;;;;4830982;29;20636;-86
2021/03/09 08:00:12;;;;;;;32.15;18.10;;;5.10;99.90;;;;;;4811075;29;20038;-87
2021/03/09 08:02:58;;;;;;;32.97;16.58;;;5.20;99.90;;;;;;4827459;29;20061;-88
2021/03/09 08:05:27;;;;;;;33.85;17.73;;;5.30;99.90;;;;;;4825772;29;20184;-84
2021/03/09 08:07:54;;;;;;;33.00;15.80;;;;;;;;;;4827473;29;20455;-86
2021/03/09 08:10:30;;;;;;;28.90;15.43;;;;;;;;;;4818180;29;20042;-88
2021/03/09 08:13:19;;;;;;;34.35;16.98;;;5.50;99.90;;;;;;4809169;29;20029;-87
2021/03/09 08:15:47;;;;;;;32.35;16.48;;;;;;;;;;4822012;29;20058;-86
2021/03/09 08:18:21;;;;;;;34.90;14.80;;;;;;;;;;4811306;29;20053;-86
2021/03/09 08:20:57;;;;;;;31.55;14.38;;;5.70;99.90;;;;;;4841777;29;20082;-87
2021/03/09 08:23:33;;;;;;;35.95;14.13;;;5.70;99.90;;;;;;4836995;29;20498;-86
2021/03/09 08:26:08;;;;;;;31.80;15.93;;;5.60;99.90;;;;;;4824462;29;20068;-84
2021/03/09 08:28:53;;;;;;;30.25;16.52;;;;;;;;;;4823877;29;20053;-86
2021/03/09 08:31:21;;;;;;;27.63;12.57;;;;;;;;;;4818446;29;20061;-86
2021/03/09 08:33:52;;;;;;;25.25;13.85;;;5.70;99.90;;;;;;4828199;29;20062;-86
2021/03/09 08:36:20;;;;;;;24.38;13.98;;;;;;;;;;4812630;29;20487;-86
2021/03/09 08:39:13;;;;;;;30.23;13.88;;;5.80;99.90;;;;;;4831576;29;20601;-86
2021/03/09 08:41:41;;;;;;;27.48;15.45;;;;;;;;;;4834513;29;20054;-87
2021/03/09 08:44:19;;;;;;;29.38;14.13;;;5.90;99.90;;;;;;4836129;29;20064;-86
2021/03/09 08:46:53;;;;;;;32.13;16.25;;;;;;;;;;4826511;29;20069;-85
2021/03/09 08:49:37;;;;;;;26.65;12.50;;;;;;;;;;4826360;29;20482;-87
2021/03/09 08:52:28;;;;;;;34.60;15.15;;;6.20;99.90;;;;;;4796938;29;20546;-86
2021/03/09 08:54:56;;;;;;;35.80;16.05;;;;;;;;;;4802205;29;20494;-86
2021/03/09 08:57:25;;;;;;;25.65;14.30;;;6.20;99.90;;;;;;4811315;29;20045;-86
2021/03/09 08:59:59;;;;;;;34.05;15.15;;;6.20;99.90;;;;;;4826102;29;20050;-86
2021/03/09 09:02:28;;;;;;;26.10;13.90;;;;;;;;;;4817569;29;20054;-86
2021/03/09 09:05:01;;;;;;;27.88;13.00;;;6.40;99.90;;;;;;4824330;29;20058;-87
2021/03/09 09:07:36;;;;;;;30.02;13.43;;;6.50;99.90;;;;;;4793148;29;20053;-87
2021/03/09 09:10:04;;;;;;;27.70;15.63;;;;;;;;;;4820622;29;20065;-86
2021/03/09 09:12:35;;;;;;;24.23;13.88;;;6.60;99.90;;;;;;4818210;29;20063;-87
2021/03/09 09:15:04;;;;;;;26.02;11.77;;;;;;;;;;4803645;29;20314;-86
2021/03/09 09:17:33;;;;;;;32.08;13.65;;;6.70;99.90;;;;;;4838955;29;20080;-86
2021/03/09 09:20:47;;;;;;;36.50;12.60;;;6.80;99.90;;;;;;4821331;29;20058;-85
2021/03/09 09:23:15;;;;;;;32.88;13.13;;;;;;;;;;4803570;29;20065;-86
2021/03/09 09:25:44;;;;;;;28.63;10.55;;;7.00;99.90;;;;;;4809056;29;20065;-85
2021/03/09 09:28:22;;;;;;;23.55;11.50;;;7.10;99.90;;;;;;4822537;29;20454;-85
2021/03/09 09:30:49;;;;;;;25.35;12.45;;;;;;;;;;4811319;29;20499;-85
2021/03/09 09:33:19;;;;;;;20.75;11.57;;;;;;;;;;4804297;29;20065;-84
2021/03/09 09:35:48;;;;;;;19.00;10.65;;;7.30;99.90;;;;;;4829893;29;20671;-84
2021/03/09 09:38:18;;;;;;;22.73;11.15;;;;;;;;;;4819251;29;20478;-86
2021/03/09 09:40:48;;;;;;;24.98;12.25;;;;;;;;;;4811134;29;20061;-85
2021/03/09 09:43:19;;;;;;;26.65;12.00;;;7.40;99.90;;;;;;4825679;29;20047;-85
2021/03/09 09:45:54;;;;;;;20.75;10.82;;;7.50;99.90;;;;;;4845966;29;20066;-87
2021/03/09 09:48:26;;;;;;;38.92;12.48;;;7.50;99.90;;;;;;4843418;29;20517;-84
2021/03/09 09:51:02;;;;;;;28.67;12.00;;;7.50;99.90;;;;;;4828277;29;20406;-84
2021/03/09 09:53:41;;;;;;;20.30;10.68;;;7.60;99.90;;;;;;4841350;29;20065;-84
2021/03/09 09:56:14;;;;;;;21.92;10.32;;;7.60;99.90;;;;;;4818880;29;20049;-87
2021/03/09 09:58:54;;;;;;;17.70;10.35;;;7.80;99.90;;;;;;4841806;29;20061;-85
2021/03/09 10:01:38;;;;;;;21.30;9.15;;;;;;;;;;4813163;29;20149;-87
2021/03/09 10:04:13;;;;;;;20.88;7.70;;;8.00;99.90;;;;;;4824575;29;20053;-86
2021/03/09 10:06:51;;;;;;;21.17;10.45;;;8.70;99.90;;;;;;4831525;29;20133;-85
2021/03/09 10:09:25;;;;;;;15.35;7.38;;;8.00;99.90;;;;;;4828876;29;20065;-87
2021/03/09 10:11:54;;;;;;;22.02;8.98;;;8.20;99.90;;;;;;4830679;29;20074;-86
2021/03/09 10:14:28;;;;;;;15.73;7.20;;;8.20;99.90;;;;;;4848514;29;20057;-86
2021/03/09 10:16:59;;;;;;;25.80;11.90;;;8.30;99.90;;;;;;4838377;29;20068;-85
2021/03/09 10:19:36;;;;;;;23.05;9.63;;;8.40;99.90;;;;;;4836316;29;20065;-86
2021/03/09 10:22:16;;;;;;;15.20;8.85;;;8.40;99.90;;;;;;4838041;29;20053;-85
2021/03/09 10:24:45;;;;;;;17.00;8.23;;;;;;;;;;4851496;29;20046;-84
2021/03/09 10:27:16;;;;;;;35.42;8.60;;;8.50;99.90;;;;;;4846156;29;20049;-85
2021/03/09 10:29:58;;;;;;;14.85;7.97;;;;;;;;;;4839287;29;20064;-84
2021/03/09 10:32:26;;;;;;;16.00;7.68;;;;;;;;;;4854601;29;20056;-85
2021/03/09 10:34:56;;;;;;;15.85;7.68;;;;;;;;;;4839112;29;20057;-86
2021/03/09 10:37:41;;;;;;;19.17;8.73;;;;;;;;;;4825513;29;20064;-86
2021/03/09 10:40:14;;;;;;;16.52;8.25;;;7.80;99.90;;;;;;4854104;29;20060;-86
2021/03/09 10:42:43;;;;;;;19.67;8.25;;;;;;;;;;4860194;29;20049;-85
2021/03/09 10:45:18;;;;;;;16.42;8.15;;;;;;;;;;4857467;29;20064;-85
2021/03/09 10:47:57;;;;;;;19.48;9.45;;;9.00;99.90;;;;;;4827068;29;20053;-84
2021/03/09 10:50:27;;;;;;;17.65;9.35;;;9.00;99.90;;;;;;4808218;29;20076;-86
2021/03/09 10:52:55;;;;;;;21.95;9.00;;;;;;;;;;4849421;29;20325;-85
2021/03/09 10:55:25;;;;;;;21.23;8.32;;;9.40;99.90;;;;;;4813261;29;20756;-85
2021/03/09 10:57:53;;;;;;;14.32;7.63;;;;;;;;;;4823571;29;20060;-87
2021/03/09 11:00:22;;;;;;;20.73;7.63;;;9.80;99.90;;;;;;4834546;29;20054;-87
2021/03/09 11:02:51;;;;;;;18.98;7.97;;;;;;;;;;4826143;29;20042;-86
2021/03/09 11:05:20;;;;;;;14.80;7.35;;;;;;;;;;4848082;29;20050;-85
2021/03/09 11:07:47;;;;;;;15.82;7.47;;;;;;;;;;4827921;29;20061;-86
2021/03/09 11:10:16;;;;;;;17.67;7.90;;;;;;;;;;4831500;29;20056;-85
2021/03/09 11:12:44;;;;;;;16.20;6.47;;;;;;;;;;4816457;29;20054;-85
2021/03/09 11:15:14;;;;;;;15.10;6.75;;;;;;;;;;4812532;29;20058;-88
2021/03/09 11:17:44;;;;;;;14.67;6.57;;;;;;;;;;4834639;29;20054;-88
2021/03/09 11:20:25;;;;;;;18.55;7.97;;;;;;;;;;4835311;29;20046;-89
2021/03/09 11:22:53;;;;;;;15.98;5.13;;;;;;;;;;4810374;29;20054;-89
2021/03/09 11:25:26;;;;;;;15.32;5.60;;;;;;;;;;4827738;29;20062;-89
2021/03/09 13:44:34;;;;;;;17.95;3.10;;;13.00;86.90;;;;;;4919530;23;20060;-92
2021/03/09 13:47:42;;;;;;;8.45;2.67;;;;;;;;;;4867878;29;20053;-92
2021/03/09 13:50:33;;;;;;;;;;;13.00;84.90;;;;;;4855102;29;20119;-92
2021/03/09 13:53:05;;;;;;;6.57;2.60;;;;;;;;;;4848632;29;19923;-91
2021/03/09 13:55:42;;;;;;;6.07;2.28;;;;;;;;;;4853880;29;20068;-92
2021/03/09 13:58:15;;;;;;;3.80;2.35;;;;;;;;;;4854901;29;20067;-92
2021/03/09 14:01:01;;;;;;;7.10;3.75;;;;;;;;;;4857087;29;20049;-92
2021/03/09 14:03:35;;;;;;;9.63;4.05;;;;;;;;;;4833431;29;20057;-90
2021/03/09 14:06:25;;;;;;;7.28;3.33;;;;;;;;;;4832070;29;20060;-93
2021/03/09 14:09:51;;;;;;;9.07;3.42;;;;;;;;;;4841403;29;20057;-93
2021/03/09 14:13:02;;;;;;;8.88;3.55;;;;;;;;;;4823214;29;20043;-93
2021/03/09 14:16:00;;;;;;;6.88;3.03;;;;;;;;;;4817397;29;20050;-94
2021/03/09 14:19:35;;;;;;;5.70;3.05;;;;;;;;;;4839734;29;20141;-93
2021/03/09 14:23:51;;;;;;;;;;;;;;;;;;;;;
2021/03/09 14:26:55;;;;;;;7.05;2.92;;;;;;;;;;5010898;23;20057;-94
2021/03/09 14:30:34;;;;;;;6.30;3.78;;;;;;;;;;5040862;24;20044;-95
2021/03/09 14:47:45;;;;;;;8.98;3.83;;;15.00;73.70;;;;;;5023004;23;20049;-95
2021/03/09 14:50:39;;;;;;;7.50;3.22;;;;;;;;;;4865215;29;20118;-94
2021/03/09 15:21:23;;;;;;;7.28;2.10;;;;;;;;;;4481712;23;20044;-89
2021/03/09 15:23:57;;;;;;;6.55;1.95;;;;;;;;;;4872749;29;20056;-89
2021/03/09 15:26:25;;;;;;;6.95;2.13;;;;;;;;;;4876737;29;20059;-90
2021/03/09 15:28:54;;;;;;;4.35;1.52;;;;;;;;;;4866105;29;20053;-90
2021/03/09 15:31:23;;;;;;;7.43;1.63;;;;;;;;;;4885270;29;20040;-90
2021/03/09 15:34:01;;;;;;;6.57;2.22;;;;;;;;;;4866542;29;20061;-89
2021/03/09 15:36:31;;;;;;;11.10;2.42;;;;;;;;;;4855137;29;20052;-89
2021/03/09 15:38:58;;;;;;;8.57;3.25;;;;;;;;;;4888884;29;20070;-89
2021/03/09 15:41:37;;;;;;;5.68;3.03;;;;;;;;;;4896949;29;20045;-88
2021/03/09 15:44:08;;;;;;;9.45;1.58;;;;;;;;;;4877467;29;20044;-89
2021/03/09 15:46:44;;;;;;;4.28;2.13;;;19.60;56.40;;;;;;4863131;29;20154;-88
2021/03/09 15:49:17;;;;;;;5.40;2.15;;;;;;;;;;4888838;29;20048;-89
2021/03/09 15:51:46;;;;;;;8.45;2.78;;;;;;;;;;4889715;29;20067;-88
2021/03/09 15:54:15;;;;;;;7.30;2.70;;;;;;;;;;4889835;29;20047;-88
2021/03/09 15:56:44;;;;;;;8.57;2.27;;;;;;;;;;4876717;29;20052;-89
2021/03/09 15:59:13;;;;;;;5.30;2.42;;;;;;;;;;4874323;29;20039;-87
2021/03/09 16:01:41;;;;;;;4.60;2.15;;;;;;;;;;4879718;29;20069;-87
2021/03/09 16:04:09;;;;;;;8.65;2.33;;;;;;;;;;4900826;29;20053;-88
2021/03/09 16:06:41;;;;;;;9.50;2.40;;;;;;;;;;4856238;29;20056;-88
2021/03/09 16:09:09;;;;;;;4.55;2.50;;;;;;;;;;4862212;29;20408;-87
2021/03/09 16:11:43;;;;;;;7.72;2.30;;;;;;;;;;4877471;29;20617;-88
2021/03/09 16:14:12;;;;;;;6.22;2.28;;;;;;;;;;4954312;23;20052;-88
2021/03/09 16:16:45;;;;;;;5.53;2.15;;;;;;;;;;4861094;29;20044;-89
2021/03/09 16:19:24;;;;;;;6.45;2.28;;;;;;;;;;4868464;29;20072;-87
2021/03/09 16:21:56;;;;;;;3.95;1.73;;;;;;;;;;4843860;29;20068;-88
2021/03/09 16:24:28;;;;;;;5.97;2.30;;;;;;;;;;4839917;29;20045;-88
2021/03/09 16:26:59;;;;;;;8.30;2.60;;;;;;;;;;4867048;29;20063;-89
2021/03/09 16:29:27;;;;;;;10.38;3.17;;;;;;;;;;4860215;29;20060;-89
2021/03/09 16:31:56;;;;;;;6.45;2.97;;;;;;;;;;4846441;29;20058;-88
2021/03/09 16:34:27;;;;;;;5.43;2.25;;;;;;;;;;4863814;29;20042;-89
2021/03/09 16:36:58;;;;;;;9.70;2.72;;;;;;;;;;4864495;29;20065;-88
2021/03/09 16:39:29;;;;;;;6.97;3.05;;;;;;;;;;4873712;29;20059;-87
2021/03/09 16:41:59;;;;;;;6.38;3.17;;;;;;;;;;4858565;29;20065;-87
2021/03/09 16:44:41;;;;;;;8.98;3.40;;;;;;;;;;4849966;29;20045;-89
2021/03/09 16:50:36;;;;;;;6.45;3.70;;;;;;;;;;4859463;29;20054;-88
2021/03/09 16:53:06;;;;;;;8.93;3.38;;;;;;;;;;4838853;29;20148;-87
2021/03/09 16:55:39;;;;;;;8.13;2.92;;;;;;;;;;4854246;29;20057;-87
2021/03/09 16:58:09;;;;;;;7.20;3.08;;;;;;;;;;4859989;29;20057;-86
2021/03/09 17:00:40;;;;;;;8.35;4.22;;;;;;;;;;4880668;29;20048;-88
2021/03/09 17:03:08;;;;;;;9.15;4.38;;;;;;;;;;4877943;29;20184;-87
2021/03/09 17:05:54;;;;;;;6.95;3.35;;;;;;;;;;4821852;29;20050;-88
2021/03/09 17:08:25;;;;;;;7.97;4.00;;;;;;;;;;4837075;29;20046;-85
2021/03/09 17:10:59;;;;;;;8.88;3.97;;;;;;;;;;4861009;29;20070;-87
2021/03/09 17:13:27;;;;;;;10.13;3.10;;;;;;;;;;4860479;29;20050;-86
2021/03/09 17:15:55;;;;;;;7.65;3.20;;;;;;;;;;4853390;29;20061;-85
2021/03/09 17:18:25;;;;;;;7.75;3.40;;;;;;;;;;4857017;29;20057;-88
2021/03/09 17:20:57;;;;;;;13.25;4.43;;;;;;;;;;4849440;29;20054;-85
2021/03/09 17:23:27;;;;;;;10.98;4.47;;;;;;;;;;4828655;29;20478;-87
2021/03/09 17:25:56;;;;;;;9.35;4.13;;;;;;;;;;4839629;29;20057;-87
2021/03/09 17:28:23;;;;;;;11.23;4.25;;;;;;;;;;4838652;29;20057;-89
2021/03/09 17:30:55;;;;;;;7.07;3.85;;;;;;;;;;4860589;29;20151;-89
2021/03/09 17:33:53;;;;;;;8.52;3.83;;;;;;;;;;4834208;29;20057;-88
2021/03/09 17:36:22;;;;;;;8.18;3.85;;;;;;;;;;4883128;24;20049;-90
2021/03/09 17:38:55;;;;;;;11.77;4.60;;;;;;;;;;4869858;29;20057;-89
2021/03/09 17:41:34;;;;;;;12.13;4.28;;;;;;;;;;4877080;29;20043;-88
2021/03/09 17:44:21;;;;;;;17.48;4.78;;;;;;;;;;4895330;29;20053;-89
2021/03/09 17:47:06;;;;;;;8.82;3.83;;;;;;;;;;4870036;29;20056;-88
2021/03/09 17:49:43;;;;;;;9.48;4.47;;;;;;;;;;4891775;29;20083;-89
2021/03/09 17:52:17;;;;;;;8.65;3.67;;;;;;;;;;4865295;29;20706;-89
2021/03/09 17:54:48;;;;;;;7.90;4.50;;;;;;;;;;4855758;29;20045;-89
2021/03/09 17:57:19;;;;;;;15.80;5.43;;;;;;;;;;4855161;29;20057;-90
2021/03/09 17:59:55;;;;;;;20.33;8.77;;;;;;;;;;4892454;29;20059;-85
2021/03/09 18:02:53;;;;;;;47.03;24.80;;;;;;;;;;4875966;29;20054;-87
2021/03/09 18:05:35;;;;;;;50.33;20.50;;;;;;;;;;4873501;29;20052;-88
2021/03/09 18:08:13;;;;;;;23.25;11.23;;;11.10;97.90;;;;;;4849366;29;20071;-85
2021/03/09 18:10:52;;;;;;;21.80;9.30;;;;;;;;;;4830123;29;20111;-85
2021/03/09 18:13:20;;;;;;;29.88;7.57;;;;;;;;;;4859844;29;20057;-86
2021/03/09 18:15:47;;;;;;;14.18;6.03;;;;;;;;;;4851265;29;20062;-88
2021/03/09 18:18:18;;;;;;;17.10;7.05;;;;;;;;;;4871578;29;20177;-85
2021/03/09 18:20:54;;;;;;;32.75;11.65;;;;;;;;;;4879621;29;20053;-86
2021/03/09 18:23:33;;;;;;;36.72;12.30;;;;;;;;;;4838866;29;20053;-86
2021/03/09 18:26:04;;;;;;;27.42;11.55;;;;;;;;;;4865237;29;20045;-85
2021/03/09 18:28:32;;;;;;;26.13;9.40;;;;;;;;;;4856124;29;20722;-85
2021/03/09 18:31:03;;;;;;;14.63;6.40;;;;;;;;;;4860468;29;20808;-87
2021/03/09 18:33:33;;;;;;;22.70;6.32;;;;;;;;;;4851935;29;20060;-86
2021/03/09 18:36:27;;;;;;;14.68;6.97;;;10.40;99.90;;;;;;4856010;29;20060;-90
2021/03/09 18:39:06;;;;;;;18.38;8.82;;;;;;;;;;4869468;29;20049;-86
2021/03/09 18:41:40;;;;;;;15.20;8.23;;;;;;;;;;4866092;29;20040;-86
2021/03/09 18:44:13;;;;;;;21.20;10.10;;;;;;;;;;4872706;29;20057;-87
2021/03/09 18:46:43;;;;;;;21.70;10.23;;;;;;;;;;4845472;29;20054;-87
2021/03/09 18:49:23;;;;;;;22.42;10.30;;;;;;;;;;4857346;29;20060;-86
2021/03/09 18:51:59;;;;;;;19.92;9.20;;;10.20;99.90;;;;;;4852287;29;20684;-84
2021/03/09 18:54:30;;;;;;;17.80;9.20;;;;;;;;;;4891077;29;20058;-85
2021/03/09 18:57:04;;;;;;;20.15;7.88;;;;;;;;;;4875938;29;20057;-86
2021/03/09 18:59:36;;;;;;;25.35;11.75;;;;;;;;;;4850816;29;20056;-86
2021/03/09 19:02:12;;;;;;;18.80;8.82;;;;;;;;;;4855666;29;20061;-86
2021/03/09 19:04:43;;;;;;;21.25;9.98;;;;;;;;;;4858853;29;20445;-87
2021/03/09 19:07:13;;;;;;;23.27;9.25;;;;;;;;;;4840195;29;20065;-87
2021/03/09 19:10:03;;;;;;;17.50;8.70;;;;;;;;;;4855228;29;20088;-83
2021/03/09 19:12:31;;;;;;;17.08;9.30;;;;;;;;;;4865758;29;20668;-86
2021/03/09 19:15:00;;;;;;;22.95;8.73;;;;;;;;;;4853561;29;20064;-85
2021/03/09 19:17:28;;;;;;;23.50;9.25;;;;;;;;;;4875590;29;20053;-83
2021/03/09 19:19:56;;;;;;;20.80;10.75;;;;;;;;;;4870033;29;20057;-85
2021/03/09 19:22:25;;;;;;;19.75;9.68;;;;;;;;;;4864980;29;20049;-85
2021/03/09 19:24:54;;;;;;;22.55;10.65;;;;;;;;;;4853351;29;20067;-84
2021/03/09 19:27:24;;;;;;;20.90;9.00;;;;;;;;;;4849640;29;20416;-85
2021/03/09 19:29:52;;;;;;;22.37;9.00;;;;;;;;;;4509565;29;10000410;-85
2021/03/09 19:32:21;;;;;;;20.92;10.15;;;;;;;;;;4865691;29;20057;-83
2021/03/09 19:34:50;;;;;;;24.55;10.85;;;;;;;;;;4862754;29;20053;-86
2021/03/09 19:37:20;;;;;;;31.50;12.50;;;;;;;;;;4843798;29;20053;-85
2021/03/09 19:39:55;;;;;;;27.13;12.95;;;;;;;;;;4868595;29;20303;-86
2021/03/09 19:42:31;;;;;;;29.25;13.25;;;9.10;99.90;;;;;;4859282;29;20053;-87
2021/03/09 19:45:07;;;;;;;31.50;13.23;;;;;;;;;;4884643;29;20691;-86
2021/03/09 19:47:38;;;;;;;22.95;11.68;;;;;;;;;;4846175;29;20635;-87
2021/03/09 19:50:13;;;;;;;27.60;14.32;;;;;;;;;;4873436;29;20778;-86